CheckWX is a tool to help pilots better visualize weather data.  It is not intended as a substitute for an official pre-flight weather briefing.

00:19:54 UTC

LIRU METAR
Urbe Airport
Roma, Italy
Current

8 hours ago

LIRU 141550Z 13004KT 9000 BKN030 BKN045 14/12 Q1007 RERA
Observed
Nov-14 @ 15:50 UTC
Wind
  • 130° at 4 KTS
Visibility
9,000 meters
Flight Rules
MVFR
Cloud Levels
  • Broken at 3,000' AGL
  • Broken at 4,500' AGL
Temperature
14°C / 57°F
Dewpoint
12°C / 54°F
Humidity
88%
Altimeter
29.73" Hg
Pressure
1006.92 hPa
Previous

10 hours ago

LIRU 141350Z 12008KT 9999 SCT040 15/12 Q1006
Observed
Nov-14 @ 13:50 UTC
Wind
  • 120° at 8 KTS
Visibility
10,000+ meters
Flight Rules
VFR
Cloud Levels
  • Scattered at 4,000' AGL
Temperature
15°C / 59°F
Dewpoint
12°C / 54°F
Humidity
82%
Altimeter
29.7" Hg
Pressure
1005.92 hPa
Previous

11 hours ago

LIRU 141250Z 11005KT 060V140 9999 FEW035 16/11 Q1006
Observed
Nov-14 @ 12:50 UTC
Wind
  • 110° at 5 KTS
Visibility
10,000+ meters
Flight Rules
VFR
Cloud Levels
  • Few at 3,500' AGL
Temperature
16°C / 61°F
Dewpoint
11°C / 52°F
Humidity
72%
Altimeter
29.7" Hg
Pressure
1005.92 hPa